Time;durP1;ratioP1;P1;durP2;ratioP2;P2;SDS_P1;SDS_P2;PMS_P1;PMS_P2;Temp;Humidity;BMP_temperature;BMP_pressure;BME280_temperature;BME280_humidity;BME280_pressure;Samples;Min_cycle;Max_cycle;Signal;HPM_P1;HPM_P2
2021/04/16 00:01:54;;;;;;;8.57;2.63;;;;;;;;;;4988352;28;20614;-69
2021/04/16 00:04:19;;;;;;;3.73;2.10;;;;;;;;;;5001547;28;20380;-69
2021/04/16 00:06:44;;;;;;;4.87;2.23;;;;;;;;;;4984692;28;20223;-69
2021/04/16 00:09:10;;;;;;;5.23;2.20;;;;;;;;;;4995575;28;20191;-69
2021/04/16 00:11:35;;;;;;;3.50;2.10;;;;;;;;;;4985925;28;20268;-69
2021/04/16 00:14:01;;;;;;;3.57;2.17;;;;;;;;;;4988383;28;20264;-69
2021/04/16 00:16:28;;;;;;;3.30;2.20;;;;;;;;;;4984168;28;20698;-70
2021/04/16 00:18:54;;;;;;;5.00;2.33;;;;;;;;;;4991734;28;20168;-70
2021/04/16 00:21:20;;;;;;;4.67;2.47;;;;;;;;;;4984367;28;20671;-70
2021/04/16 00:23:46;;;;;;;4.60;2.43;;;;;;;;;;4998402;28;20178;-69
2021/04/16 00:26:12;;;;;;;4.87;2.33;;;;;;;;;;4981495;28;20202;-70
2021/04/16 00:28:40;;;;;;;7.63;2.67;;;;;;;;;;4995698;28;20199;-69
2021/04/16 00:31:25;;;;;;;6.07;2.57;;;;;;;;;;4990856;28;20261;-69
2021/04/16 00:33:52;;;;;;;7.33;2.47;;;;;;;;;;4997964;28;20175;-70
2021/04/16 00:36:18;;;;;;;3.73;2.43;;;;;;;;;;4992570;28;20248;-69
2021/04/16 00:38:45;;;;;;;3.77;2.20;;;;;;;;;;4985490;28;20196;-69
2021/04/16 00:41:14;;;;;;;8.67;2.73;;;;;;;;;;4987993;28;20200;-69
2021/04/16 00:43:39;;;;;;;7.10;2.70;;;;;;;;;;4985396;28;20219;-69
2021/04/16 00:46:10;;;;;;;5.40;2.40;;;;;;;;;;4993625;28;20198;-70
2021/04/16 00:48:39;;;;;;;5.20;2.47;;;;;;;;;;4985568;28;20254;-69
2021/04/16 00:51:07;;;;;;;6.43;2.97;;;;;;;;;;5006578;28;20564;-69
2021/04/16 00:53:34;;;;;;;8.73;3.03;;;;;;;;;;4984286;28;20191;-69
2021/04/16 00:56:01;;;;;;;4.70;2.90;;;;;;;;;;4992893;28;20178;-69
2021/04/16 00:58:30;;;;;;;5.17;2.77;;;;;;;;;;4984867;28;20639;-69
2021/04/16 01:00:57;;;;;;;5.43;2.93;;;;;;;;;;4993775;28;20200;-69
2021/04/16 01:03:23;;;;;;;5.57;2.90;;;;;;;;;;4987780;28;20538;-69
2021/04/16 01:05:53;;;;;;;5.50;3.07;;;;;;;;;;4993225;28;20191;-69
2021/04/16 01:08:18;;;;;;;4.23;2.70;;;;;;;;;;4986418;28;20198;-69
2021/04/16 01:10:44;;;;;;;5.53;3.13;;;;;;;;;;4996772;28;20642;-69
2021/04/16 01:13:09;;;;;;;5.23;2.97;;;;;;;;;;5000532;28;20241;-69
2021/04/16 01:15:38;;;;;;;4.77;2.83;;;;;;;;;;4983190;28;20233;-69
2021/04/16 01:18:12;;;;;;;5.47;3.20;;;;;;;;;;4999144;28;20189;-69
2021/04/16 01:20:40;;;;;;;6.03;3.57;;;;;;;;;;4981801;28;20546;-69
2021/04/16 01:23:28;;;;;;;4.87;2.70;;;;;;;;;;5000573;28;20278;-69
2021/04/16 01:25:56;;;;;;;5.20;3.10;;;;;;;;;;4984355;28;20560;-69
2021/04/16 01:28:21;;;;;;;6.60;2.90;;;;;;;;;;4991005;28;20195;-70
2021/04/16 01:30:58;;;;;;;6.30;3.40;;;;;;;;;;4980772;28;20194;-69
2021/04/16 01:33:25;;;;;;;5.40;3.30;;;;;;;;;;4991362;28;20404;-69
2021/04/16 01:35:51;;;;;;;7.10;3.63;;;;;;;;;;4986234;28;20206;-69
2021/04/16 01:38:16;;;;;;;4.90;3.40;;;;;;;;;;4989116;28;20592;-69
2021/04/16 01:40:42;;;;;;;7.03;3.23;;;;;;;;;;4985015;28;20192;-70
2021/04/16 01:43:23;;;;;;;8.60;3.70;;;;;;;;;;4990310;28;20242;-67
2021/04/16 01:45:59;;;;;;;7.93;3.80;;;;;;;;;;4982481;28;20252;-68
2021/04/16 01:48:24;;;;;;;6.70;3.57;;;;;;;;;;4996849;28;20197;-68
2021/04/16 01:50:50;;;;;;;7.53;3.33;;;;;;;;;;4983922;28;20190;-68
2021/04/16 01:53:16;;;;;;;6.83;3.83;;;;;;;;;;4988887;28;20202;-69
2021/04/16 01:55:42;;;;;;;6.70;4.07;;;;;;;;;;4985877;28;20207;-69
2021/04/16 01:58:07;;;;;;;8.43;4.77;;;;;;;;;;4990689;28;20191;-69
2021/04/16 02:00:38;;;;;;;6.87;3.60;;;;;;;;;;4994144;28;20199;-69
2021/04/16 02:03:04;;;;;;;6.77;3.57;;;;;;;;;;4986300;28;20540;-70
2021/04/16 02:05:30;;;;;;;8.60;4.17;;;;;;;;;;4994788;28;20182;-69
2021/04/16 02:07:56;;;;;;;6.97;3.87;;;;;;;;;;4992117;28;20205;-69
2021/04/16 02:10:22;;;;;;;6.83;3.87;;;;;;;;;;4994408;28;20219;-69
2021/04/16 02:12:49;;;;;;;6.00;3.70;;;;;;;;;;4985009;28;20281;-69
2021/04/16 02:15:15;;;;;;;7.87;4.73;;;;;;;;;;4990216;28;20195;-69
2021/04/16 02:17:40;;;;;;;8.70;4.60;;;;;;;;;;4990909;28;20183;-68
2021/04/16 02:20:13;;;;;;;8.23;4.63;;;;;;;;;;4991294;28;20219;-70
2021/04/16 02:22:38;;;;;;;8.37;4.40;;;;;;;;;;4982760;28;20191;-69
2021/04/16 02:25:05;;;;;;;8.03;4.63;;;;;;;;;;4989830;28;20844;-69
2021/04/16 02:27:31;;;;;;;8.70;4.63;;;;;;;;;;4982751;28;20195;-68
2021/04/16 02:29:57;;;;;;;9.50;4.60;;;;;;;;;;4994690;28;20231;-69
2021/04/16 02:32:22;;;;;;;9.43;4.87;;;;;;;;;;4991974;28;20686;-69
2021/04/16 02:34:48;;;;;;;13.47;4.77;;;;;;;;;;4996288;28;20242;-69
2021/04/16 02:37:17;;;;;;;9.03;4.50;;;;;;;;;;4999356;28;20233;-69
2021/04/16 02:39:43;;;;;;;11.13;4.60;;;;;;;;;;4987952;28;20638;-69
2021/04/16 02:42:09;;;;;;;7.33;4.60;;;;;;;;;;4992787;28;20314;-70
2021/04/16 02:44:34;;;;;;;10.97;4.90;;;;;;;;;;4985581;28;20191;-69
2021/04/16 02:47:01;;;;;;;9.07;4.77;;;;;;;;;;4998700;28;20229;-69
2021/04/16 02:49:26;;;;;;;10.70;4.80;;;;;;;;;;4991466;28;20206;-69
2021/04/16 02:51:53;;;;;;;9.37;4.37;;;;;;;;;;4998052;28;20209;-68
2021/04/16 02:54:19;;;;;;;12.87;5.07;;;;;;;;;;4985480;28;20218;-69
2021/04/16 02:56:45;;;;;;;7.57;4.40;;;;;;;;;;4995550;28;20217;-69
2021/04/16 02:59:11;;;;;;;11.80;5.67;;;;;;;;;;4985654;28;21440;-69
2021/04/16 03:01:37;;;;;;;7.97;4.90;;;;;;;;;;4997649;28;20265;-70
2021/04/16 03:04:03;;;;;;;8.57;4.80;;;;;;;;;;4988305;28;20233;-69
2021/04/16 03:06:28;;;;;;;7.47;5.07;;;;;;;;;;4998262;28;20628;-69
2021/04/16 03:08:55;;;;;;;9.93;4.63;;;;;;;;;;5001000;28;20220;-69
2021/04/16 03:11:22;;;;;;;10.33;5.60;;;;;;;;;;4987084;28;20190;-68
2021/04/16 03:13:47;;;;;;;9.60;5.07;;;;;;;;;;5001270;28;20686;-68
2021/04/16 03:16:13;;;;;;;11.87;5.80;;;;;;;;;;4988538;28;20285;-68
2021/04/16 03:18:39;;;;;;;9.03;5.40;;;;;;;;;;4993061;28;20226;-69
2021/04/16 03:21:05;;;;;;;12.20;5.57;;;;;;;;;;4990519;28;20219;-68
2021/04/16 03:23:30;;;;;;;13.60;5.70;;;;;;;;;;4995238;28;20191;-68
2021/04/16 03:25:55;;;;;;;11.07;5.57;;;;;;;;;;4990713;28;20253;-68
2021/04/16 03:28:21;;;;;;;12.43;5.60;;;;;;;;;;4989697;28;20195;-68
2021/04/16 03:30:48;;;;;;;11.77;6.13;;;;;;;;;;4985082;28;20215;-68
2021/04/16 03:33:14;;;;;;;12.73;5.83;;;;;;;;;;4996802;28;20191;-68
2021/04/16 03:35:39;;;;;;;9.10;5.60;;;;;;;;;;4987140;28;22925;-68
2021/04/16 03:38:04;;;;;;;11.93;6.10;;;;;;;;;;4991827;28;20183;-68
2021/04/16 03:40:32;;;;;;;10.77;6.20;;;;;;;;;;4993554;28;20183;-69
2021/04/16 03:42:58;;;;;;;13.43;5.80;;;;;;;;;;4991284;28;20736;-69
2021/04/16 03:45:24;;;;;;;15.50;6.00;;;;;;;;;;4995286;28;20195;-69
2021/04/16 03:47:49;;;;;;;11.50;6.27;;;;;;;;;;4987145;28;20255;-68
2021/04/16 03:50:19;;;;;;;11.00;5.90;;;;;;;;;;4993833;28;20219;-68
2021/04/16 03:52:44;;;;;;;15.80;6.70;;;;;;;;;;4983127;28;20187;-68
2021/04/16 03:55:10;;;;;;;15.00;7.00;;;;;;;;;;4994029;28;20195;-69
2021/04/16 03:57:36;;;;;;;13.03;6.30;;;;;;;;;;4989635;28;20654;-68
2021/04/16 04:00:05;;;;;;;11.53;6.60;;;;;;;;;;4995689;28;20215;-69
2021/04/16 04:02:30;;;;;;;13.77;6.27;;;;;;;;;;4983526;28;20646;-68
2021/04/16 04:04:55;;;;;;;11.27;6.30;;;;;;;;;;4994607;28;20202;-70
2021/04/16 04:07:20;;;;;;;11.03;6.27;;;;;;;;;;4991999;28;20209;-69
2021/04/16 04:09:46;;;;;;;10.23;6.20;;;;;;;;;;4995484;28;20199;-69
2021/04/16 04:12:12;;;;;;;11.23;6.10;;;;;;;;;;4993811;28;20755;-69
2021/04/16 04:14:37;;;;;;;17.40;6.57;;;;;;;;;;4986725;28;20195;-69
2021/04/16 04:17:04;;;;;;;10.23;6.33;;;;;;;;;;5001374;28;21343;-69
2021/04/16 04:19:32;;;;;;;11.07;6.40;;;;;;;;;;4988307;28;20329;-69
2021/04/16 04:21:59;;;;;;;13.57;6.43;;;;;;;;;;5000762;28;20190;-69
2021/04/16 04:24:25;;;;;;;16.97;6.97;;;;;;;;;;4984242;28;20252;-69
2021/04/16 04:26:51;;;;;;;11.23;7.07;;;;;;;;;;4995063;28;20183;-69
2021/04/16 04:29:19;;;;;;;15.20;7.00;;;;;;;;;;4980212;28;20216;-69
2021/04/16 04:31:47;;;;;;;13.67;6.90;;;;;;;;;;4998254;28;20734;-69
2021/04/16 04:34:25;;;;;;;12.87;7.10;;;;;;;;;;4985080;28;20195;-69
2021/04/16 04:36:52;;;;;;;12.40;6.80;;;;;;;;;;4992728;28;20762;-69
2021/04/16 04:39:19;;;;;;;12.37;6.67;;;;;;;;;;4986358;28;20233;-68
2021/04/16 04:41:44;;;;;;;12.13;6.90;;;;;;;;;;4996160;28;20617;-69
2021/04/16 04:44:10;;;;;;;9.63;6.13;;;;;;;;;;4984198;28;20215;-69
2021/04/16 04:46:36;;;;;;;13.53;7.20;;;;;;;;;;4999826;28;20183;-69
2021/04/16 04:49:03;;;;;;;12.53;6.93;;;;;;;;;;4995284;28;20221;-69
2021/04/16 04:51:28;;;;;;;11.17;7.00;;;;;;;;;;4986253;28;20191;-69
2021/04/16 04:53:54;;;;;;;12.03;6.70;;;;;;;;;;4991632;28;20189;-69
2021/04/16 04:56:19;;;;;;;16.07;7.13;;;;;;;;;;4983737;28;20183;-69
2021/04/16 04:58:45;;;;;;;14.10;7.20;;;;;;;;;;4991224;28;20187;-69
2021/04/16 05:01:10;;;;;;;17.70;7.57;;;;;;;;;;4985692;28;20191;-69
2021/04/16 05:03:36;;;;;;;15.23;7.20;;;;;;;;;;4990421;28;20215;-69
2021/04/16 05:06:01;;;;;;;12.77;7.23;;;;;;;;;;4985946;28;20282;-69
2021/04/16 05:08:27;;;;;;;22.17;8.17;;;;;;;;;;4987167;28;20233;-69
2021/04/16 05:10:52;;;;;;;12.77;7.10;;;;;;;;;;4979710;28;20222;-69
2021/04/16 05:13:17;;;;;;;14.07;7.50;;;;;;;;;;4988738;28;20207;-69
2021/04/16 05:15:44;;;;;;;17.30;6.73;;;;;;;;;;4982301;28;20290;-69
2021/04/16 05:18:09;;;;;;;16.73;7.33;;;;;;;;;;4993882;28;20744;-69
2021/04/16 05:20:34;;;;;;;13.03;7.57;;;;;;;;;;4983114;28;20262;-69
2021/04/16 05:23:00;;;;;;;17.00;7.50;;;;;;;;;;4990447;28;20179;-69
2021/04/16 05:25:25;;;;;;;14.00;7.10;;;;;;;;;;4990958;28;20210;-69
2021/04/16 05:27:50;;;;;;;14.53;6.93;;;;;;;;;;4984291;28;20179;-69
2021/04/16 05:30:16;;;;;;;13.23;7.00;;;;;;;;;;4992634;28;20210;-70
2021/04/16 05:32:42;;;;;;;16.73;7.23;;;;;;;;;;4985392;28;20183;-69
2021/04/16 05:35:08;;;;;;;14.23;7.33;;;;;;;;;;4993394;28;20189;-69
2021/04/16 05:37:34;;;;;;;11.87;7.47;;;;;;;;;;4986785;28;20187;-69
2021/04/16 05:39:59;;;;;;;16.53;7.30;;;;;;;;;;4991705;28;20210;-69
2021/04/16 05:42:24;;;;;;;13.83;7.50;;;;;;;;;;4987799;28;20293;-69
2021/04/16 05:44:50;;;;;;;12.53;7.77;;;;;;;;;;4988121;28;20183;-69
2021/04/16 05:47:15;;;;;;;14.13;7.70;;;;;;;;;;4981267;28;20593;-69
2021/04/16 05:49:41;;;;;;;13.73;8.03;;;;;;;;;;4989438;28;20204;-69
2021/04/16 05:52:06;;;;;;;14.63;8.00;;;;;;;;;;4988260;28;20662;-69
2021/04/16 05:54:32;;;;;;;11.95;7.95;;;;;;;;;;4295241;28;10022598;-69
2021/04/16 05:56:57;;;;;;;18.93;8.77;;;;;;;;;;4989157;28;20266;-70
2021/04/16 05:59:22;;;;;;;17.30;9.13;;;;;;;;;;4980464;28;20597;-68
2021/04/16 06:01:47;;;;;;;16.37;8.23;;;;;;;;;;4990194;28;20751;-69
2021/04/16 06:04:19;;;;;;;15.53;8.33;;;;;;;;;;4975882;28;20758;-70
2021/04/16 06:06:45;;;;;;;16.43;8.57;;;;;;;;;;4985546;28;20682;-70
2021/04/16 06:09:10;;;;;;;17.30;8.87;;;;;;;;;;4990316;28;20254;-69
2021/04/16 06:11:36;;;;;;;16.00;8.57;;;;;;;;;;4983086;28;20647;-69
2021/04/16 06:14:02;;;;;;;18.47;8.60;;;;;;;;;;4978901;28;20191;-69
2021/04/16 06:16:27;;;;;;;17.37;9.13;;;;;;;;;;4993300;28;20183;-70
2021/04/16 06:18:52;;;;;;;20.03;9.63;;;;;;;;;;4980902;28;20183;-68
2021/04/16 06:21:18;;;;;;;17.80;9.13;;;;;;;;;;4989292;28;20238;-68
2021/04/16 06:23:43;;;;;;;18.63;9.67;;;;;;;;;;4987956;28;20605;-69
2021/04/16 06:26:08;;;;;;;17.90;9.20;;;;;;;;;;4982540;28;20183;-68
2021/04/16 06:28:34;;;;;;;20.17;9.97;;;;;;;;;;4990266;28;20183;-69
2021/04/16 06:31:00;;;;;;;18.40;9.80;;;;;;;;;;4979951;28;20591;-68
2021/04/16 06:33:28;;;;;;;18.07;9.80;;;;;;;;;;4992540;28;20190;-69
2021/04/16 06:36:16;;;;;;;21.80;10.00;;;;;;;;;;4987303;28;20751;-69
2021/04/16 06:38:43;;;;;;;22.17;10.03;;;;;;;;;;4994458;28;20191;-69
2021/04/16 06:41:27;;;;;;;18.93;9.80;;;;;;;;;;4987654;28;20277;-69
2021/04/16 06:43:57;;;;;;;21.03;9.63;;;;;;;;;;4997119;28;20219;-69
2021/04/16 06:46:28;;;;;;;18.37;9.10;;;;;;;;;;4982675;28;20210;-69
2021/04/16 06:48:58;;;;;;;20.63;8.80;;;;;;;;;;4988495;28;20691;-69
2021/04/16 06:51:23;;;;;;;15.53;9.37;;;;;;;;;;4985191;28;20752;-69
2021/04/16 06:53:57;;;;;;;20.63;8.87;;;;;;;;;;4990184;28;20182;-69
2021/04/16 06:56:32;;;;;;;16.90;8.70;;;;;;;;;;4985093;28;20190;-69
2021/04/16 06:59:05;;;;;;;20.20;9.17;;;;;;;;;;4990831;28;20186;-69
2021/04/16 07:01:40;;;;;;;23.17;8.60;;;;;;;;;;4982592;28;20190;-69
2021/04/16 07:04:40;;;;;;;20.30;8.87;;;;;;;;;;4989913;28;20606;-69
2021/04/16 07:07:26;;;;;;;16.27;8.73;;;;;;;;;;4972118;28;20208;-69
2021/04/16 07:10:02;;;;;;;17.87;8.23;;;;;;;;;;4993010;28;20207;-69
2021/04/16 07:12:27;;;;;;;16.03;7.90;;;;;;;;;;4982335;28;20222;-69
2021/04/16 07:14:56;;;;;;;13.40;7.60;;;;;;;;;;4996361;28;20677;-69
2021/04/16 07:17:25;;;;;;;22.47;8.57;;;;;;;;;;4982958;28;20592;-69
2021/04/16 07:19:51;;;;;;;11.10;7.30;;;;;;;;;;4997140;28;20180;-70
2021/04/16 07:22:31;;;;;;;18.97;7.73;;;;;;;;;;4986566;28;20213;-68
2021/04/16 07:24:58;;;;;;;19.50;7.73;;;;;;;;;;4991592;28;20224;-70
2021/04/16 07:27:42;;;;;;;19.80;7.80;;;;;;;;;;4984892;28;20304;-68
2021/04/16 07:30:37;;;;;;;12.93;6.23;;;;;;;;;;4994517;28;20265;-68
2021/04/16 07:33:04;;;;;;;20.03;7.77;;;;;;;;;;4987363;28;20203;-69
2021/04/16 07:35:34;;;;;;;13.47;7.00;;;;;;;;;;4997410;28;20191;-69
2021/04/16 07:38:20;;;;;;;14.17;6.23;;;;;;;;;;4985038;28;20195;-69
2021/04/16 07:40:47;;;;;;;12.77;6.27;;;;;;;;;;4994997;28;20258;-69
2021/04/16 07:43:40;;;;;;;15.17;6.20;;;;;;;;;;4982541;28;20290;-69
2021/04/16 07:46:20;;;;;;;13.37;6.10;;;;;;;;;;4990464;28;20549;-69
2021/04/16 07:48:45;;;;;;;14.13;5.53;;;;;;;;;;4983530;28;20195;-69
2021/04/16 07:51:11;;;;;;;13.07;5.70;;;;;;;;;;4995419;28;20241;-69
2021/04/16 07:53:40;;;;;;;10.80;5.13;;;;;;;;;;4985377;28;20287;-69
2021/04/16 07:56:16;;;;;;;15.73;5.37;;;;;;;;;;4993796;28;20189;-69
2021/04/16 07:58:46;;;;;;;13.77;5.30;;;;;;;;;;4992725;28;20198;-69
2021/04/16 08:01:17;;;;;;;13.10;5.20;;;;;;;;;;4989879;28;20273;-69
2021/04/16 08:03:55;;;;;;;10.87;4.70;;;;;;;;;;4993669;28;20207;-68
2021/04/16 08:06:30;;;;;;;13.93;4.90;;;;;;;;;;4980976;28;20214;-69
2021/04/16 08:08:56;;;;;;;7.63;4.17;;;;;;;;;;4991823;28;20221;-69
2021/04/16 08:11:25;;;;;;;10.80;3.23;;;;;;;;;;4986145;28;20269;-69
2021/04/16 08:13:54;;;;;;;9.30;4.03;;;;;;;;;;4995082;28;20218;-69
2021/04/16 08:16:33;;;;;;;12.13;4.50;;;;;;;;;;4982662;28;20198;-69
2021/04/16 08:19:24;;;;;;;7.07;3.80;;;;;;;;;;4989972;28;20259;-70
2021/04/16 08:22:12;;;;;;;7.50;3.60;;;;;;;;;;4983863;28;20518;-69
2021/04/16 08:24:55;;;;;;;6.40;2.70;;;;;;;;;;4991294;28;20225;-69
2021/04/16 08:27:49;;;;;;;8.30;3.17;;;;;;;;;;4983183;28;20306;-70
2021/04/16 08:30:40;;;;;;;8.53;3.30;;;;;;;;;;4994802;28;20612;-69
2021/04/16 08:33:16;;;;;;;6.97;2.70;;;;;;;;;;4991317;28;20666;-69
2021/04/16 08:35:59;;;;;;;6.07;2.40;;;;;;;;;;4988262;28;20610;-69
2021/04/16 08:38:30;;;;;;;6.53;2.50;;;;;;;;;;4993822;28;20199;-70
2021/04/16 08:40:59;;;;;;;5.23;2.40;;;;;;;;;;4989961;28;20270;-69
2021/04/16 08:43:38;;;;;;;6.83;2.47;;;;;;;;;;4989487;28;20235;-69
2021/04/16 08:46:22;;;;;;;6.13;2.20;;;;;;;;;;4992648;28;20199;-69
2021/04/16 08:48:53;;;;;;;10.10;2.43;;;;;;;;;;4991347;28;20768;-69
2021/04/16 08:51:22;;;;;;;6.83;2.40;;;;;;;;;;4992734;28;20195;-69
2021/04/16 08:53:48;;;;;;;3.53;1.50;;;;;;;;;;4982525;28;20215;-69
2021/04/16 08:56:21;;;;;;;6.87;1.77;;;;;;;;;;4989258;28;20234;-69
2021/04/16 08:58:49;;;;;;;2.90;1.33;;;;;;;;;;4987711;28;20190;-69
2021/04/16 09:01:17;;;;;;;5.10;1.80;;;;;;;;;;4994645;28;20210;-69
2021/04/16 09:03:54;;;;;;;7.03;1.57;;;;;;;;;;4986580;28;20263;-69
2021/04/16 09:06:39;;;;;;;3.50;1.03;;;;;;;;;;4990507;28;20190;-68
2021/04/16 09:09:09;;;;;;;3.33;1.47;;;;;;;;;;4976313;28;20600;-68
2021/04/16 09:11:43;;;;;;;2.47;1.20;;;;;;;;;;4998414;28;20668;-68
2021/04/16 09:14:32;;;;;;;3.70;1.13;;;;;;;;;;4981183;28;20194;-69
2021/04/16 09:17:02;;;;;;;5.35;1.25;;;;;;;;;;4984265;28;20579;-69
2021/04/16 09:19:27;;;;;;;5.03;1.70;;;;;;;;;;4985991;28;20190;-69
2021/04/16 09:22:21;;;;;;;2.72;1.38;;;;;;;;;;4992875;28;20195;-69
2021/04/16 09:24:53;;;;;;;3.42;1.40;;;;;;;;;;4984601;28;20238;-68
2021/04/16 09:27:30;;;;;;;2.70;1.60;;;;;;;;;;4989746;28;20198;-70
2021/04/16 09:29:58;;;;;;;3.72;1.55;;;;;;;;;;4986086;28;20241;-69
2021/04/16 09:32:39;;;;;;;3.42;1.20;;;;;;;;;;4992957;28;20242;-69
2021/04/16 09:35:19;;;;;;;3.92;1.40;;;;;;;;;;4985878;28;20285;-69
2021/04/16 09:37:50;;;;;;;4.38;1.55;;;;;;;;;;4992840;28;20187;-69
2021/04/16 09:40:19;;;;;;;4.47;1.40;;;;;;;;;;4979083;28;20194;-69
2021/04/16 09:42:54;;;;;;;3.03;1.42;;;;;;;;;;4993748;28;20272;-70
2021/04/16 09:45:22;;;;;;;1.27;1.05;;;;;;;;;;4981727;28;20203;-69
2021/04/16 09:47:51;;;;;;;3.03;1.13;;;;;;;;;;4993289;28;20601;-69
2021/04/16 09:50:28;;;;;;;2.47;1.20;;;;;;;;;;4980822;28;20203;-69
2021/04/16 09:53:08;;;;;;;4.05;1.17;;;;;;;;;;4990504;28;20270;-69
2021/04/16 09:55:55;;;;;;;2.55;1.20;;;;;;;;;;4987651;28;20186;-69
2021/04/16 09:58:29;;;;;;;1.83;1.20;;;;;;;;;;4994281;28;20636;-70
2021/04/16 10:00:54;;;;;;;2.50;1.55;;;;;;;;;;4980234;28;20185;-69
2021/04/16 10:03:25;;;;;;;4.82;1.50;;;;;;;;;;4991185;28;20197;-69
2021/04/16 10:05:51;;;;;;;4.38;1.80;;;;;;;;;;4982795;28;20187;-69
2021/04/16 10:08:27;;;;;;;3.50;1.38;;;;;;;;;;4992842;28;20191;-69
2021/04/16 10:10:53;;;;;;;3.55;1.42;;;;;;;;;;4979075;28;20207;-69
2021/04/16 10:13:18;;;;;;;3.67;1.60;;;;;;;;;;4991672;28;20646;-69
2021/04/16 10:15:46;;;;;;;4.43;1.67;;;;;;;;;;4982084;28;20187;-69
2021/04/16 10:18:32;;;;;;;4.97;1.80;;;;;;;;;;4994139;28;20183;-69
2021/04/16 10:21:03;;;;;;;3.72;1.50;;;;;;;;;;4978796;28;20203;-69
2021/04/16 10:23:38;;;;;;;3.90;1.70;;;;;;;;;;4987541;28;20682;-69
2021/04/16 10:35:05;;;;;;;2.45;1.67;;;;;;;;;;4991593;28;20213;-68
2021/04/16 10:56:19;;;;;;;2.78;1.25;;;;;;;;;;4984969;28;20194;-69
2021/04/16 10:59:23;;;;;;;4.47;1.40;;;;;;;;;;4994546;28;20639;-69
2021/04/16 11:28:20;;;;;;;3.08;1.98;;;;;;;;;;4983976;28;20579;-70
2021/04/16 12:39:11;;;;;;;1.77;1.25;;;;;;;;;;4987972;28;20261;-69
2021/04/16 12:41:43;;;;;;;5.50;1.40;;;;;;;;;;4993910;28;20242;-69
2021/04/16 12:44:21;;;;;;;2.70;1.30;;;;;;;;;;4990142;28;20231;-70
2021/04/16 12:46:47;;;;;;;2.13;1.08;;;;;;;;;;4992563;28;20242;-70
2021/04/16 12:49:12;;;;;;;2.75;1.10;;;;;;;;;;4997274;28;20223;-70
2021/04/16 12:51:37;;;;;;;2.03;1.60;;;;;;;;;;4993854;28;20281;-70
2021/04/16 12:54:03;;;;;;;3.33;1.10;;;;;;;;;;4986169;28;20195;-70
2021/04/16 12:56:35;;;;;;;1.58;1.20;;;;;;;;;;4992903;28;20281;-70
2021/04/16 12:59:06;;;;;;;4.38;1.30;;;;;;;;;;4986137;28;20181;-70
2021/04/16 13:01:31;;;;;;;2.38;1.23;;;;;;;;;;4997345;28;20206;-70
2021/04/16 13:03:58;;;;;;;3.03;1.35;;;;;;;;;;4995122;28;20210;-70
2021/04/16 13:06:43;;;;;;;3.05;1.35;;;;;;;;;;4988721;28;20788;-70
2021/04/16 13:09:11;;;;;;;2.92;1.90;;;;;;;;;;4996836;28;20213;-70
2021/04/16 13:11:38;;;;;;;2.75;1.33;;;;;;;;;;4984520;28;21761;-70
2021/04/16 13:14:04;;;;;;;3.08;1.42;;;;;;;;;;5001114;28;20182;-70
2021/04/16 13:16:30;;;;;;;2.80;1.70;;;;;;;;;;4986451;28;20269;-69
2021/04/16 13:18:57;;;;;;;2.55;1.58;;;;;;;;;;4996413;28;20275;-70
2021/04/16 13:21:30;;;;;;;2.55;1.50;;;;;;;;;;4981796;28;20280;-70
2021/04/16 13:23:57;;;;;;;2.60;1.25;;;;;;;;;;4994497;28;20234;-70
2021/04/16 13:26:22;;;;;;;4.60;1.40;;;;;;;;;;4984237;28;20202;-70
2021/04/16 13:28:48;;;;;;;3.72;1.33;;;;;;;;;;4989696;28;20635;-69
2021/04/16 13:31:13;;;;;;;3.85;1.40;;;;;;;;;;4997697;28;20183;-69
2021/04/16 13:33:44;;;;;;;2.28;1.23;;;;;;;;;;4991815;28;20190;-70
2021/04/16 13:36:18;;;;;;;3.85;1.50;;;;;;;;;;4981993;28;20195;-69
2021/04/16 13:38:44;;;;;;;2.03;1.70;;;;;;;;;;4988932;28;20195;-70
2021/04/16 13:41:11;;;;;;;3.13;1.52;;;;;;;;;;4992676;28;20278;-70
2021/04/16 13:43:36;;;;;;;5.32;1.52;;;;;;;;;;4984909;28;20663;-69
2021/04/16 13:46:04;;;;;;;3.42;1.60;;;;;;;;;;4990420;28;20218;-70
2021/04/16 13:48:29;;;;;;;3.83;1.50;;;;;;;;;;4985861;28;20214;-69
2021/04/16 13:50:55;;;;;;;4.00;1.70;;;;;;;;;;4993907;28;20233;-69
2021/04/16 13:53:20;;;;;;;3.20;1.77;;;;;;;;;;4983689;28;20194;-70
2021/04/16 13:55:46;;;;;;;2.53;1.50;;;;;;;;;;4992362;28;20199;-70
2021/04/16 13:58:11;;;;;;;4.43;1.63;;;;;;;;;;4981621;28;20180;-70
2021/04/16 14:00:39;;;;;;;2.03;1.40;;;;;;;;;;4991295;28;20559;-69
2021/04/16 14:03:19;;;;;;;4.32;1.40;;;;;;;;;;4989768;28;20269;-69
2021/04/16 14:05:49;;;;;;;5.82;1.77;;;;;;;;;;4992981;28;20199;-69
2021/04/16 14:08:24;;;;;;;2.30;1.77;;;;;;;;;;4983263;28;20274;-69
2021/04/16 14:10:49;;;;;;;3.78;1.60;;;;;;;;;;4992798;28;20201;-70
2021/04/16 14:13:14;;;;;;;4.03;1.77;;;;;;;;;;4985037;28;20218;-70
2021/04/16 14:15:40;;;;;;;5.28;1.90;;;;;;;;;;4993974;28;20548;-69
2021/04/16 14:18:05;;;;;;;4.63;2.00;;;;;;;;;;4989270;28;20203;-70
2021/04/16 14:20:37;;;;;;;4.32;1.95;;;;;;;;;;4985643;28;20198;-70
2021/04/16 14:23:03;;;;;;;3.33;1.63;;;;;;;;;;4990177;28;20271;-70
2021/04/16 14:25:33;;;;;;;2.97;1.55;;;;;;;;;;4978995;28;20194;-70
2021/04/16 14:27:59;;;;;;;3.83;1.90;;;;;;;;;;4989535;28;20181;-69
2021/04/16 14:30:30;;;;;;;3.00;1.80;;;;;;;;;;4978521;28;20249;-70
2021/04/16 14:32:58;;;;;;;3.35;1.98;;;;;;;;;;4989337;28;20269;-69
2021/04/16 14:35:25;;;;;;;5.32;1.90;;;;;;;;;;4983121;28;20202;-69
2021/04/16 14:37:51;;;;;;;5.35;1.60;;;;;;;;;;4995865;28;20191;-69
2021/04/16 14:40:17;;;;;;;6.13;1.63;;;;;;;;;;4982734;28;20276;-70
2021/04/16 14:42:43;;;;;;;6.15;1.70;;;;;;;;;;4992557;28;20773;-69
2021/04/16 14:45:12;;;;;;;4.25;1.90;;;;;;;;;;4981588;28;20203;-69
2021/04/16 14:47:37;;;;;;;2.83;1.55;;;;;;;;;;4993402;28;20207;-70
2021/04/16 14:50:06;;;;;;;7.55;2.25;;;;;;;;;;4983153;28;20234;-69
2021/04/16 14:52:33;;;;;;;1.80;1.58;;;;;;;;;;4988379;28;20586;-69
2021/04/16 14:54:59;;;;;;;5.55;2.05;;;;;;;;;;4985762;28;20258;-69
2021/04/16 14:57:35;;;;;;;4.47;2.20;;;;;;;;;;4981933;28;20203;-70
2021/04/16 15:00:03;;;;;;;6.22;2.20;;;;;;;;;;4992348;28;20682;-69
2021/04/16 15:02:28;;;;;;;8.82;2.10;;;;;;;;;;4981524;28;20223;-69
2021/04/16 15:04:54;;;;;;;4.80;1.63;;;;;;;;;;4986982;28;20242;-69
2021/04/16 15:07:22;;;;;;;2.85;1.77;;;;;;;;;;4980669;28;20184;-69
2021/04/16 15:09:52;;;;;;;8.35;1.90;;;;;;;;;;4990389;28;20222;-69
2021/04/16 15:12:21;;;;;;;7.60;2.00;;;;;;;;;;4983093;28;20191;-69
2021/04/16 15:14:48;;;;;;;4.35;2.00;;;;;;;;;;4987273;28;20544;-70
2021/04/16 15:17:18;;;;;;;5.60;1.83;;;;;;;;;;4980835;28;20233;-69
2021/04/16 15:19:46;;;;;;;2.63;1.48;;;;;;;;;;4991426;28;20179;-69
2021/04/16 15:22:18;;;;;;;4.30;1.42;;;;;;;;;;4978645;28;21454;-69
2021/04/16 15:24:44;;;;;;;3.80;2.00;;;;;;;;;;4988742;28;20214;-69
2021/04/16 15:27:20;;;;;;;2.90;1.70;;;;;;;;;;4986421;28;20283;-69
2021/04/16 15:29:50;;;;;;;4.32;1.90;;;;;;;;;;4989272;28;20218;-69
2021/04/16 15:32:19;;;;;;;2.50;1.60;;;;;;;;;;4980354;28;20198;-69
2021/04/16 15:46:04;;;;;;;6.32;2.10;;;;;;;;;;4992557;28;20198;-69
2021/04/16 15:48:31;;;;;;;4.45;1.98;;;;;;;;;;4983273;28;20671;-69
2021/04/16 15:51:03;;;;;;;4.90;2.03;;;;;;;;;;4994513;28;20705;-69
2021/04/16 15:53:29;;;;;;;2.67;1.92;;;;;;;;;;4984321;28;20187;-69
2021/04/16 15:55:56;;;;;;;6.57;2.28;;;;;;;;;;4994920;28;20320;-73
2021/04/16 15:58:28;;;;;;;2.90;1.80;;;;;;;;;;4983014;28;20194;-70
2021/04/16 16:00:56;;;;;;;2.30;1.60;;;;;;;;;;4994143;28;20195;-70
2021/04/16 16:03:22;;;;;;;4.68;1.90;;;;;;;;;;4997474;28;20333;-70
2021/04/16 16:05:48;;;;;;;4.20;2.00;;;;;;;;;;4987612;28;20186;-69
2021/04/16 16:08:14;;;;;;;6.37;2.07;;;;;;;;;;4996891;28;20434;-70
2021/04/16 16:10:42;;;;;;;6.95;2.10;;;;;;;;;;4982798;28;20478;-68
2021/04/16 16:13:22;;;;;;;4.68;1.75;;;;;;;;;;4999462;28;20187;-68
2021/04/16 16:15:50;;;;;;;4.70;1.90;;;;;;;;;;4984891;28;20670;-68
2021/04/16 16:18:17;;;;;;;5.25;2.15;;;;;;;;;;4991064;28;20207;-70
2021/04/16 16:20:46;;;;;;;2.10;1.70;;;;;;;;;;4984094;28;20180;-69
2021/04/16 16:23:13;;;;;;;11.43;3.00;;;;;;;;;;4996199;28;20187;-69
2021/04/16 16:25:39;;;;;;;7.60;2.03;;;;;;;;;;4987626;28;20556;-69
2021/04/16 16:28:15;;;;;;;3.65;1.90;;;;;;;;;;4992126;28;20206;-69
2021/04/16 16:30:40;;;;;;;2.58;1.70;;;;;;;;;;4984428;28;20320;-70
2021/04/16 16:33:06;;;;;;;4.80;2.20;;;;;;;;;;4993956;28;20613;-68
2021/04/16 16:35:36;;;;;;;3.13;2.08;;;;;;;;;;4983203;28;20183;-69
2021/04/16 16:38:02;;;;;;;4.50;1.90;;;;;;;;;;4993691;28;20518;-68
2021/04/16 16:40:27;;;;;;;5.88;1.85;;;;;;;;;;4983994;28;20188;-69
2021/04/16 16:43:00;;;;;;;3.28;1.88;;;;;;;;;;4989049;28;20231;-69
2021/04/16 16:45:32;;;;;;;4.90;1.88;;;;;;;;;;4987956;28;20198;-70
2021/04/16 16:47:58;;;;;;;3.78;1.48;;;;;;;;;;4983279;28;20195;-69
2021/04/16 16:50:27;;;;;;;3.17;1.58;;;;;;;;;;4992002;28;20636;-70
2021/04/16 16:52:53;;;;;;;6.32;2.10;;;;;;;;;;4292028;28;10000888;-69
2021/04/16 16:55:20;;;;;;;2.95;2.13;;;;;;;;;;4985488;28;20223;-69
2021/04/16 16:57:46;;;;;;;7.72;2.05;;;;;;;;;;4981642;28;20186;-69
2021/04/16 17:00:17;;;;;;;6.20;2.17;;;;;;;;;;4996080;28;20625;-70
2021/04/16 17:02:42;;;;;;;3.13;1.92;;;;;;;;;;4983859;28;20558;-69
2021/04/16 17:05:09;;;;;;;4.90;1.70;;;;;;;;;;4990557;28;20198;-69